Time;durP1;ratioP1;P1;durP2;ratioP2;P2;SDS_P1;SDS_P2;PMS_P1;PMS_P2;Temp;Humidity;BMP_temperature;BMP_pressure;BME280_temperature;BME280_humidity;BME280_pressure;Samples;Min_cycle;Max_cycle;Signal;HPM_P1;HPM_P2
2021/07/16 00:00:39;;;;;;;9.60;6.80;;;;;;;19.82;85.28;96354.83;1777516;79;20955;-81
2021/07/16 00:03:06;;;;;;;9.88;6.65;;;;;;;19.77;85.21;96354.76;1771960;79;20940;-80
2021/07/16 00:05:32;;;;;;;9.05;6.67;;;;;;;19.78;85.36;96355.03;1775423;79;21035;-80
2021/07/16 00:07:59;;;;;;;12.53;6.83;;;;;;;19.79;85.14;96356.63;1777703;79;21389;-80
2021/07/16 00:10:25;;;;;;;12.18;6.28;;;;;;;19.83;85.16;96349.83;1780302;79;20908;-80
2021/07/16 00:12:50;;;;;;;9.53;6.70;;;;;;;19.83;84.88;96349.03;1785232;79;20902;-81
2021/07/16 00:15:18;;;;;;;9.93;6.40;;;;;;;19.69;84.48;96348.06;1791076;79;20904;-81
2021/07/16 00:17:44;;;;;;;7.20;5.80;;;;;;;19.69;84.48;96348.06;1800615;79;20973;-80
2021/07/16 00:20:10;;;;;;;7.60;6.72;;;;;;;19.56;84.39;96347.05;1798388;79;21331;-80
2021/07/16 00:22:36;;;;;;;11.38;6.17;;;;;;;19.46;84.34;96337.10;1800614;78;20978;-80
2021/07/16 00:25:04;;;;;;;8.28;5.78;;;;;;;19.47;84.48;96340.54;1792931;79;20971;-80
2021/07/16 00:27:30;;;;;;;7.08;5.47;;;;;;;19.42;84.39;96336.52;1793845;79;20907;-80
2021/07/16 00:29:55;;;;;;;12.47;5.67;;;;;;;19.35;84.49;96337.16;1792014;79;20927;-79
2021/07/16 00:32:21;;;;;;;9.15;6.20;;;;;;;19.29;84.64;96346.03;1799376;78;20911;-80
2021/07/16 00:34:47;;;;;;;9.45;6.03;;;;;;;19.22;85.01;96342.23;1803731;79;20976;-80
2021/07/16 00:37:12;;;;;;;11.25;6.45;;;;;;;19.15;84.83;96342.88;1801985;79;21897;-80
2021/07/16 00:39:38;;;;;;;10.53;5.92;;;;;;;19.07;84.79;96341.45;1761675;80;21003;-80
2021/07/16 00:42:05;;;;;;;9.10;5.87;;;;;;;19.05;85.06;96344.04;1769792;79;20963;-80
2021/07/16 00:44:35;;;;;;;12.00;6.20;;;;;;;19.04;85.24;96339.29;1767186;79;20974;-80
2021/07/16 00:47:04;;;;;;;10.35;6.55;;;;;;;19.04;85.24;96332.70;1764541;79;21320;-80
2021/07/16 00:49:30;;;;;;;10.55;6.40;;;;;;;19.02;85.44;96334.75;1769228;79;21042;-80
2021/07/16 00:51:56;;;;;;;8.90;5.78;;;;;;;18.99;85.40;96339.69;1769110;80;20982;-80
2021/07/16 00:54:22;;;;;;;11.12;6.37;;;;;;;18.94;85.48;96336.45;1767795;79;20915;-80
2021/07/16 00:56:47;;;;;;;12.07;6.08;;;;;;;18.88;85.41;96336.89;1770725;79;20916;-80
2021/07/16 00:59:15;;;;;;;8.10;6.03;;;;;;;18.86;85.59;96342.87;1769590;79;20960;-80
2021/07/16 01:01:46;;;;;;;10.98;6.20;;;;;;;18.85;85.75;96345.23;1738622;81;20966;-80
2021/07/16 01:04:12;;;;;;;13.68;5.92;;;;;;;18.83;85.55;96345.19;1735343;81;20971;-80
2021/07/16 01:06:38;;;;;;;12.40;5.67;;;;;;;18.84;85.59;96340.20;1745205;79;21292;-80
2021/07/16 01:09:05;;;;;;;12.18;5.87;;;;;;;18.84;85.65;96332.30;1743264;82;20947;-80
2021/07/16 01:11:31;;;;;;;8.18;6.35;;;;;;;18.86;85.69;96335.50;1742558;82;21284;-80
2021/07/16 01:13:57;;;;;;;10.85;6.28;;;;;;;18.87;85.58;96333.98;1704261;82;21036;-80
2021/07/16 01:16:22;;;;;;;13.00;6.55;;;;;;;18.88;85.60;96337.41;1750325;81;21071;-80
2021/07/16 01:18:48;;;;;;;10.05;7.08;;;;;;;18.90;85.34;96343.23;1742086;81;20995;-80
2021/07/16 01:21:15;;;;;;;11.08;7.10;;;;;;;18.89;85.22;96337.69;1754138;81;21098;-80
2021/07/16 01:23:41;;;;;;;10.25;6.72;;;;;;;18.85;85.22;96329.44;1749835;81;20935;-79
2021/07/16 01:26:07;;;;;;;11.68;6.72;;;;;;;18.85;85.19;96330.75;1744840;81;21295;-80
2021/07/16 01:28:38;;;;;;;10.70;6.12;;;;;;;18.83;85.33;96337.30;1727734;81;20958;-80
2021/07/16 01:31:04;;;;;;;11.60;6.45;;;;;;;18.81;85.25;96336.73;1758237;80;20964;-80
2021/07/16 01:33:30;;;;;;;10.80;7.00;;;;;;;18.81;85.34;96340.16;1749942;81;20974;-80
2021/07/16 01:35:55;;;;;;;12.05;6.97;;;;;;;18.84;85.27;96348.10;1744174;81;20952;-80
2021/07/16 01:38:21;;;;;;;10.98;6.40;;;;;;;18.83;85.11;96345.19;1760131;80;21284;-80
2021/07/16 01:40:47;;;;;;;13.35;6.62;;;;;;;18.82;85.28;96343.08;1755601;80;20967;-80
2021/07/16 01:43:13;;;;;;;11.20;7.40;;;;;;;18.84;85.21;96348.10;1752075;80;20955;-80
2021/07/16 01:45:40;;;;;;;10.18;6.53;;;;;;;18.79;85.26;96338.80;1738566;82;21367;-80
2021/07/16 01:48:10;;;;;;;11.45;7.22;;;;;;;18.77;85.55;96342.19;1746514;81;21014;-79
2021/07/16 01:50:38;;;;;;;13.38;6.87;;;;;;;18.74;85.49;96338.71;1723052;82;20995;-79
2021/07/16 01:53:04;;;;;;;10.43;6.70;;;;;;;18.69;85.45;96339.39;1743558;81;20928;-79
2021/07/16 01:55:33;;;;;;;11.12;6.90;;;;;;;18.70;85.46;96343.62;1751573;80;20935;-80
2021/07/16 01:57:59;;;;;;;13.13;7.40;;;;;;;18.72;85.50;96340.78;1751364;80;20954;-78
2021/07/16 02:00:34;;;;;;;15.55;7.00;;;;;;;18.72;85.55;96338.16;1732515;81;20970;-80
2021/07/16 02:03:04;;;;;;;14.15;7.25;;;;;;;18.74;85.78;96342.14;1753233;80;20978;-79
2021/07/16 02:05:30;;;;;;;15.75;7.10;;;;;;;18.75;85.75;96338.99;1761408;78;20946;-79
2021/07/16 02:08:00;;;;;;;16.07;7.00;;;;;;;18.71;85.68;96337.35;1789371;79;21027;-79
2021/07/16 02:10:26;;;;;;;8.30;7.00;;;;;;;18.68;85.82;96341.74;1770692;79;20911;-80
2021/07/16 02:12:55;;;;;;;10.43;7.10;;;;;;;18.65;85.78;96335.64;1768613;79;20968;-80
2021/07/16 02:15:23;;;;;;;12.80;6.70;;;;;;;18.63;85.98;96333.76;1771057;79;21014;-80
2021/07/16 02:17:49;;;;;;;9.85;6.72;;;;;;;18.59;86.18;96322.08;1770699;79;21081;-80
2021/07/16 02:20:31;;;;;;;10.30;6.22;;;;;;;18.55;86.03;96324.89;1772726;79;21014;-81
2021/07/16 02:23:00;;;;;;;13.60;7.10;;;;;;;18.58;86.13;96332.31;1772050;79;21911;-80
2021/07/16 02:25:27;;;;;;;12.40;6.53;;;;;;;18.60;86.08;96325.78;1770848;79;21292;-80
2021/07/16 02:27:57;;;;;;;9.33;7.22;;;;;;;18.63;86.07;96326.34;1769920;79;21250;-80
2021/07/16 02:30:24;;;;;;;11.88;6.97;;;;;;;18.64;85.94;96329.30;1769424;79;21359;-80
2021/07/16 02:32:50;;;;;;;10.95;6.65;;;;;;;18.62;85.98;96327.38;1768986;79;20921;-80
2021/07/16 02:35:16;;;;;;;11.00;7.70;;;;;;;18.66;85.93;96336.44;1767256;79;21010;-80
2021/07/16 02:37:42;;;;;;;11.33;7.55;;;;;;;18.68;85.90;96328.58;1769572;79;20950;-80
2021/07/16 02:40:10;;;;;;;13.28;7.72;;;;;;;18.70;85.86;96329.14;1770736;79;20894;-79
2021/07/16 02:42:35;;;;;;;9.60;7.78;;;;;;;18.73;86.01;96331.33;1771101;79;20974;-80
2021/07/16 02:45:07;;;;;;;14.05;7.42;;;;;;;18.76;85.95;96332.17;1767815;79;20997;-79
2021/07/16 02:47:36;;;;;;;14.00;7.70;;;;;;;18.78;85.97;96332.73;1766090;79;20999;-80
2021/07/16 02:50:02;;;;;;;14.75;7.78;;;;;;;18.78;85.95;96330.62;1770972;79;20923;-80
2021/07/16 02:52:28;;;;;;;9.65;6.80;;;;;;;18.78;85.94;96341.95;1769367;79;20983;-79
2021/07/16 02:54:54;;;;;;;18.20;7.47;;;;;;;18.77;85.87;96349.56;1769883;79;21265;-80
2021/07/16 02:57:19;;;;;;;11.70;6.87;;;;;;;18.74;85.98;96350.55;1769611;79;20951;-80
2021/07/16 02:59:45;;;;;;;13.20;7.78;;;;;;;18.73;85.99;96341.86;1768979;79;21062;-80
2021/07/16 03:02:11;;;;;;;11.38;8.58;;;;;;;18.74;86.15;96342.66;1770541;79;21349;-80
2021/07/16 03:04:36;;;;;;;14.07;7.40;;;;;;;18.70;86.15;96345.45;1770204;79;21010;-80
2021/07/16 03:07:03;;;;;;;13.62;7.83;;;;;;;18.70;86.50;96346.77;1765632;80;21288;-80
2021/07/16 03:09:34;;;;;;;11.12;8.70;;;;;;;18.64;86.45;96350.34;1763364;80;21360;-80
2021/07/16 03:11:57;;;;;;;9.38;8.00;;;;;;;18.61;86.45;96354.22;1738657;81;21000;-80
2021/07/16 03:14:22;;;;;;;11.25;8.50;;;;;;;18.59;86.59;96346.56;1755815;80;21285;-79
2021/07/16 03:16:48;;;;;;;11.20;7.53;;;;;;;18.58;86.53;96341.53;1760626;80;21035;-80
2021/07/16 03:19:14;;;;;;;11.35;8.73;;;;;;;18.63;86.53;96333.76;1762173;80;20964;-79
2021/07/16 03:21:40;;;;;;;12.50;8.23;;;;;;;18.67;86.46;96325.67;1762799;80;21291;-79
2021/07/16 03:24:06;;;;;;;13.18;8.18;;;;;;;18.70;86.58;96329.66;1766401;79;20951;-80
2021/07/16 03:26:32;;;;;;;14.65;8.33;;;;;;;18.71;86.55;96328.63;1768381;79;20927;-79
2021/07/16 03:28:57;;;;;;;10.32;8.28;;;;;;;18.70;86.70;96332.30;1765853;79;21315;-79
2021/07/16 03:31:23;;;;;;;10.40;8.68;;;;;;;18.66;86.84;96334.59;1765648;79;20900;-78
2021/07/16 03:33:49;;;;;;;11.08;8.00;;;;;;;18.63;87.12;96327.17;1764569;79;21002;-80
2021/07/16 03:36:14;;;;;;;14.20;9.35;;;;;;;18.61;87.66;96318.69;1767473;79;20912;-80
2021/07/16 03:38:40;;;;;;;11.25;8.73;;;;;;;18.59;87.28;96324.19;1768542;79;21339;-79
2021/07/16 03:41:08;;;;;;;15.28;8.95;;;;;;;18.59;87.56;96328.14;1770046;79;20947;-79
2021/07/16 03:43:34;;;;;;;13.13;9.65;;;;;;;18.59;87.79;96329.45;1764542;79;21312;-79
2021/07/16 03:45:59;;;;;;;13.22;9.58;;;;;;;18.58;87.89;96336.27;1763709;79;20936;-79
2021/07/16 03:48:26;;;;;;;16.60;10.03;;;;;;;18.59;87.90;96333.40;1758211;80;21000;-80
2021/07/16 03:50:52;;;;;;;9.98;8.55;;;;;;;18.64;88.03;96334.55;1761784;80;21273;-80
2021/07/16 03:53:17;;;;;;;13.75;9.38;;;;;;;18.69;88.30;96331.50;1762459;80;20916;-80
2021/07/16 03:55:43;;;;;;;15.53;9.58;;;;;;;18.71;88.32;96326.00;1757047;80;20963;-80
2021/07/16 03:58:09;;;;;;;13.88;9.35;;;;;;;18.74;88.25;96324.23;1764345;80;21321;-80
2021/07/16 04:00:35;;;;;;;13.05;8.58;;;;;;;18.78;88.45;96331.42;1761856;80;20887;-80
2021/07/16 04:03:02;;;;;;;14.30;8.00;;;;;;;18.79;88.52;96334.85;1763657;80;20908;-80
2021/07/16 04:05:30;;;;;;;9.78;7.25;;;;;;;18.79;88.47;96338.80;1764131;80;21316;-80
2021/07/16 04:08:04;;;;;;;10.10;6.92;;;;;;;18.84;88.42;96345.47;1753997;80;20991;-80
2021/07/16 04:10:32;;;;;;;10.25;7.30;;;;;;;18.90;88.27;96337.97;1752535;81;20947;-80
2021/07/16 04:13:02;;;;;;;8.00;6.25;;;;;;;18.97;88.08;96339.93;1752910;81;21280;-80
2021/07/16 04:15:28;;;;;;;11.50;6.78;;;;;;;19.06;88.26;96346.95;1761028;80;20919;-80
2021/07/16 04:17:54;;;;;;;11.90;7.30;;;;;;;19.11;87.89;96358.37;1727323;81;21298;-80
2021/07/16 04:20:20;;;;;;;8.58;7.22;;;;;;;19.13;87.65;96360.24;1756341;80;20959;-79
2021/07/16 04:22:46;;;;;;;9.95;7.40;;;;;;;19.17;87.55;96368.47;1762365;81;20995;-80
2021/07/16 04:25:17;;;;;;;8.20;7.30;;;;;;;19.19;87.29;96371.14;1763595;81;20980;-80
2021/07/16 04:27:43;;;;;;;14.85;6.87;;;;;;;19.21;87.28;96369.61;1735833;81;20968;-80
2021/07/16 04:30:11;;;;;;;11.10;6.72;;;;;;;19.27;87.09;96369.17;1764226;80;21365;-80
2021/07/16 04:32:38;;;;;;;12.03;7.10;;;;;;;19.29;86.93;96371.85;1762558;80;20943;-80
2021/07/16 04:35:06;;;;;;;10.58;7.60;;;;;;;19.33;86.80;96374.81;1761805;80;20931;-80
2021/07/16 04:37:31;;;;;;;11.00;7.87;;;;;;;19.35;86.92;96374.05;1764384;80;20924;-80
2021/07/16 04:39:57;;;;;;;10.88;8.63;;;;;;;19.37;86.84;96370.69;1762929;80;21308;-80
2021/07/16 04:42:23;;;;;;;10.40;9.30;;;;;;;19.39;86.99;96375.99;1732032;82;20943;-80
2021/07/16 04:44:49;;;;;;;9.38;8.38;;;;;;;19.44;86.87;96374.75;1752026;80;20928;-80
2021/07/16 04:47:15;;;;;;;13.40;9.68;;;;;;;19.47;86.76;96383.50;1750744;80;20955;-80
2021/07/16 04:49:41;;;;;;;11.00;9.78;;;;;;;19.50;86.58;96384.33;1749794;80;20991;-80
2021/07/16 04:52:07;;;;;;;13.60;10.08;;;;;;;19.55;86.43;96393.42;1746096;80;20988;-81
2021/07/16 04:54:33;;;;;;;15.13;10.70;;;;;;;19.58;86.41;96393.73;1758794;80;21312;-80
2021/07/16 04:56:58;;;;;;;16.90;9.98;;;;;;;19.62;86.39;96398.80;1755603;80;20931;-80
2021/07/16 04:59:24;;;;;;;14.33;10.68;;;;;;;19.63;86.33;96395.13;1744837;80;20939;-80
2021/07/16 05:01:51;;;;;;;15.13;9.68;;;;;;;19.65;86.31;96393.57;1751427;80;20896;-80
2021/07/16 05:04:17;;;;;;;13.30;11.60;;;;;;;19.67;86.36;96394.13;1744057;81;20994;-80
2021/07/16 05:06:43;;;;;;;14.70;12.13;;;;;;;19.72;86.45;96397.67;1740096;81;20970;-80
2021/07/16 05:09:09;;;;;;;15.10;12.47;;;;;;;19.75;85.67;96393.23;1734963;81;21035;-80
2021/07/16 05:11:34;;;;;;;15.08;11.93;;;;;;;19.74;84.94;96396.91;1743824;81;20953;-80
2021/07/16 05:14:03;;;;;;;16.60;13.28;;;;;;;19.71;84.65;96407.13;1752032;80;20919;-80
2021/07/16 05:16:29;;;;;;;15.00;12.47;;;;;;;19.68;85.25;96404.95;1743134;81;21042;-80
2021/07/16 05:18:55;;;;;;;14.83;11.38;;;;;;;19.68;85.57;96410.22;1747336;80;20919;-80
2021/07/16 05:21:21;;;;;;;14.47;10.40;;;;;;;19.72;84.68;96413.48;1751408;80;21014;-79
2021/07/16 05:23:47;;;;;;;14.63;11.38;;;;;;;19.77;85.03;96420.67;1753404;80;21303;-79
2021/07/16 05:26:13;;;;;;;15.58;10.70;;;;;;;19.85;84.56;96423.42;1747114;80;21045;-79
2021/07/16 05:28:39;;;;;;;17.05;11.60;;;;;;;19.83;85.16;96415.75;1760324;81;20947;-79
2021/07/16 05:31:04;;;;;;;12.40;10.32;;;;;;;19.93;84.94;96427.78;1748218;80;20946;-79
2021/07/16 05:33:30;;;;;;;12.15;10.23;;;;;;;19.87;83.85;96426.12;1751653;80;20904;-80
2021/07/16 05:35:56;;;;;;;11.55;9.90;;;;;;;19.77;83.79;96437.28;1757463;80;20934;-79
2021/07/16 05:38:22;;;;;;;13.65;10.70;;;;;;;19.76;83.54;96439.64;1744147;81;21023;-79
2021/07/16 05:40:48;;;;;;;13.60;10.60;;;;;;;19.85;84.45;96441.38;1749623;80;20985;-80
2021/07/16 05:43:14;;;;;;;16.30;11.83;;;;;;;19.95;84.68;96436.26;1746970;81;20939;-80
2021/07/16 05:45:41;;;;;;;12.37;10.40;;;;;;;20.05;85.04;96437.75;1753988;80;20879;-79
2021/07/16 05:48:10;;;;;;;14.33;10.98;;;;;;;20.18;85.04;96441.11;1748359;80;21196;-80
2021/07/16 05:50:41;;;;;;;12.40;11.10;;;;;;;20.28;84.91;96439.92;1753264;80;20998;-79
2021/07/16 05:53:07;;;;;;;13.80;10.87;;;;;;;20.35;84.46;96443.22;1746167;81;20935;-79
2021/07/16 05:55:34;;;;;;;15.43;11.97;;;;;;;20.48;84.17;96451.33;1725421;82;21650;-79
2021/07/16 05:58:00;;;;;;;17.20;13.83;;;;;;;20.53;83.67;96451.42;1750919;80;20951;-80
2021/07/16 06:00:25;;;;;;;15.70;12.20;;;;;;;20.53;82.47;96459.34;1733850;82;20978;-80
2021/07/16 06:02:51;;;;;;;14.35;12.15;;;;;;;20.45;82.37;96451.81;1756129;81;21344;-79
2021/07/16 06:05:17;;;;;;;15.43;12.25;;;;;;;20.45;82.79;96463.17;1737760;80;20997;-79
2021/07/16 06:07:44;;;;;;;14.90;10.90;;;;;;;20.42;82.63;96459.70;1769747;79;21027;-80
2021/07/16 06:10:10;;;;;;;14.85;12.28;;;;;;;20.37;82.79;96453.80;1787958;79;21091;-79
2021/07/16 06:12:37;;;;;;;15.15;12.40;;;;;;;20.48;82.84;96469.80;1790671;79;20941;-79
2021/07/16 06:15:04;;;;;;;13.90;12.03;;;;;;;20.52;82.38;96465.66;1798195;79;21013;-79
2021/07/16 06:17:31;;;;;;;15.48;11.38;;;;;;;20.58;82.91;96457.56;1766894;80;20906;-79
2021/07/16 06:19:58;;;;;;;15.35;12.10;;;;;;;20.68;83.51;96457.70;1762664;80;20930;-80
2021/07/16 06:22:24;;;;;;;13.65;12.05;;;;;;;20.79;82.93;96455.19;1762124;80;20904;-79
2021/07/16 06:24:49;;;;;;;18.10;13.32;;;;;;;20.88;83.01;96453.73;1749376;80;20938;-81
2021/07/16 06:27:15;;;;;;;20.57;14.18;;;;;;;20.94;83.26;96456.18;1767337;80;20935;-81
2021/07/16 06:29:41;;;;;;;24.37;17.98;;;;;;;20.99;83.09;96452.83;1739092;80;20879;-81
2021/07/16 06:32:07;;;;;;;20.57;17.62;;;;;;;21.05;82.76;96455.00;1786298;79;20897;-81
2021/07/16 06:34:33;;;;;;;20.43;16.30;;;;;;;21.10;82.36;96449.23;1785787;79;20939;-80
2021/07/16 06:36:59;;;;;;;20.50;17.92;;;;;;;21.17;81.94;96459.12;1787669;79;20935;-79
2021/07/16 06:39:26;;;;;;;22.37;19.00;;;;;;;21.25;81.61;96459.22;1788778;79;20951;-79
2021/07/16 06:41:51;;;;;;;19.48;17.00;;;;;;;21.33;81.83;96456.69;1790713;79;20929;-79
2021/07/16 06:44:17;;;;;;;22.50;17.65;;;;;;;21.38;81.45;96457.52;1782998;79;20903;-80
2021/07/16 06:46:43;;;;;;;19.45;16.80;;;;;;;21.39;81.42;96449.87;1787594;79;21182;-80
2021/07/16 06:49:10;;;;;;;20.43;15.93;;;;;;;21.48;81.90;96449.72;1788241;79;20943;-81
2021/07/16 06:51:36;;;;;;;19.30;15.75;;;;;;;21.58;80.82;96449.00;1763510;80;20976;-81
2021/07/16 06:54:03;;;;;;;18.52;16.57;;;;;;;21.61;81.07;96452.98;1787110;79;21061;-80
2021/07/16 06:56:30;;;;;;;21.15;16.87;;;;;;;21.65;81.39;96454.11;1784724;79;20944;-81
2021/07/16 06:58:56;;;;;;;18.82;15.95;;;;;;;21.63;80.52;96449.56;1767329;80;20975;-80
2021/07/16 07:01:22;;;;;;;18.45;15.68;;;;;;;21.58;80.42;96452.97;1762983;80;20855;-80
2021/07/16 07:03:48;;;;;;;17.23;15.10;;;;;;;21.58;81.06;96455.09;1755095;80;20904;-81
2021/07/16 07:06:14;;;;;;;19.80;15.00;;;;;;;21.62;81.30;96456.70;1785895;79;20959;-79
2021/07/16 07:08:40;;;;;;;19.12;16.40;;;;;;;21.67;81.83;96463.38;1752313;81;20948;-79
2021/07/16 07:11:06;;;;;;;20.27;17.10;;;;;;;21.73;81.34;96459.73;1749001;81;20925;-81
2021/07/16 07:13:32;;;;;;;17.87;15.98;;;;;;;21.70;81.11;96454.95;1748939;81;20959;-80
2021/07/16 07:15:58;;;;;;;17.02;14.90;;;;;;;21.72;81.80;96454.69;1790316;79;21828;-79
2021/07/16 07:18:24;;;;;;;19.35;15.58;;;;;;;21.71;81.40;96454.42;1761518;80;20926;-79
2021/07/16 07:20:51;;;;;;;20.05;14.38;;;;;;;21.67;81.03;96452.80;1786890;79;20968;-78
2021/07/16 07:23:16;;;;;;;18.17;14.63;;;;;;;21.67;81.25;96453.33;1789150;79;21290;-78
2021/07/16 07:25:42;;;;;;;16.87;15.10;;;;;;;21.71;81.27;96457.06;1786498;79;20916;-79
2021/07/16 07:28:08;;;;;;;17.80;15.18;;;;;;;21.72;81.26;96457.34;1786503;79;20900;-80
2021/07/16 07:30:34;;;;;;;17.48;15.50;;;;;;;21.70;81.02;96456.79;1789706;79;22099;-81
2021/07/16 07:32:59;;;;;;;19.42;14.20;;;;;;;21.67;81.19;96462.59;1766328;80;20951;-79
2021/07/16 07:35:25;;;;;;;18.42;14.13;;;;;;;21.65;81.33;96467.33;1742840;81;20967;-81
2021/07/16 07:37:51;;;;;;;13.28;11.90;;;;;;;21.57;80.80;96462.75;1737388;80;20910;-80
2021/07/16 07:40:17;;;;;;;15.43;13.08;;;;;;;21.60;81.41;96461.97;1789762;79;21344;-79
2021/07/16 07:42:44;;;;;;;17.25;15.45;;;;;;;21.64;81.52;96465.20;1740942;80;20924;-80
2021/07/16 07:45:11;;;;;;;15.93;14.23;;;;;;;21.69;81.21;96463.13;1765174;80;20918;-80
2021/07/16 07:47:37;;;;;;;17.42;15.43;;;;;;;21.75;81.70;96460.27;1769372;80;21029;-79
2021/07/16 07:50:05;;;;;;;15.70;13.48;;;;;;;21.81;81.31;96456.64;1758666;80;20925;-79
2021/07/16 07:52:31;;;;;;;19.48;15.35;;;;;;;21.85;81.98;96454.29;1759700;80;20922;-79
2021/07/16 07:54:57;;;;;;;19.65;15.68;;;;;;;21.92;81.78;96456.19;1785584;79;20972;-79
2021/07/16 07:57:23;;;;;;;18.00;16.17;;;;;;;22.00;81.21;96460.23;1788851;79;20925;-79
2021/07/16 07:59:49;;;;;;;22.85;17.60;;;;;;;22.06;80.25;96461.38;1791113;79;21508;-79
2021/07/16 08:02:15;;;;;;;19.95;17.05;;;;;;;22.19;80.22;96468.62;1785075;79;20966;-81
2021/07/16 08:04:41;;;;;;;21.23;18.57;;;;;;;22.38;80.99;96461.35;1776816;79;21015;-79
2021/07/16 08:07:07;;;;;;;20.97;17.42;;;;;;;22.45;79.87;96461.95;1793323;79;20979;-80
2021/07/16 08:09:33;;;;;;;20.85;17.55;;;;;;;22.49;79.89;96466.20;1795557;79;21025;-80
2021/07/16 08:12:00;;;;;;;19.67;17.60;;;;;;;22.46;79.87;96472.80;1762691;80;20867;-80
2021/07/16 08:14:26;;;;;;;22.13;17.73;;;;;;;22.49;79.61;96478.11;1750281;80;20922;-80
2021/07/16 08:16:52;;;;;;;18.60;14.93;;;;;;;22.50;80.03;96490.83;1754065;80;20957;-80
2021/07/16 08:19:17;;;;;;;20.70;17.90;;;;;;;22.44;79.06;96502.69;1768614;79;21211;-80
2021/07/16 08:21:48;;;;;;;25.77;19.75;;;;;;;22.32;79.17;96502.08;1776041;79;20886;-80
2021/07/16 08:24:15;;;;;;;21.48;18.20;;;;;;;22.27;79.45;96502.02;1784101;79;20973;-79
2021/07/16 08:26:41;;;;;;;24.15;19.67;;;;;;;22.36;80.05;96502.37;1781042;79;21004;-80
2021/07/16 08:29:07;;;;;;;23.90;20.95;;;;;;;22.46;79.24;96507.75;1791010;79;20971;-80
2021/07/16 08:31:32;;;;;;;30.10;22.50;;;;;;;22.50;79.27;96515.98;1783724;79;20966;-81
2021/07/16 08:33:58;;;;;;;34.85;30.35;;;;;;;22.57;79.60;96504.10;1784253;79;20981;-80
2021/07/16 08:36:24;;;;;;;31.90;24.32;;;;;;;22.75;79.79;96507.66;1745654;79;20930;-81
2021/07/16 08:38:50;;;;;;;24.10;19.75;;;;;;;22.94;79.74;96511.23;1778624;79;21558;-81
2021/07/16 08:41:16;;;;;;;24.72;18.65;;;;;;;22.97;78.17;96509.43;1774945;79;21205;-81
2021/07/16 08:43:42;;;;;;;24.35;19.17;;;;;;;22.94;78.62;96516.54;1764429;79;20915;-82
2021/07/16 08:46:11;;;;;;;25.75;19.67;;;;;;;22.90;77.90;96510.96;1761747;79;21307;-80
2021/07/16 08:48:38;;;;;;;25.45;20.37;;;;;;;22.91;77.67;96510.44;1745384;79;20978;-81
2021/07/16 08:51:03;;;;;;;25.77;19.12;;;;;;;22.90;77.94;96519.44;1774924;79;21272;-81
2021/07/16 08:53:30;;;;;;;22.25;18.45;;;;;;;22.81;77.59;96515.66;1773964;79;20952;-80
2021/07/16 08:55:56;;;;;;;23.40;18.00;;;;;;;22.77;77.66;96514.02;1771662;79;20966;-80
2021/07/16 08:58:22;;;;;;;22.55;18.30;;;;;;;22.80;78.67;96510.09;1763493;79;21602;-80
2021/07/16 09:00:48;;;;;;;26.73;21.20;;;;;;;22.88;77.82;96509.63;1772793;79;21243;-80
2021/07/16 09:03:14;;;;;;;25.82;21.10;;;;;;;22.89;77.47;96505.92;1772433;79;20901;-80
2021/07/16 09:05:43;;;;;;;26.30;20.82;;;;;;;22.88;77.65;96505.13;1751941;81;21321;-79
2021/07/16 09:08:18;;;;;;;25.45;21.95;;;;;;;22.89;77.82;96503.27;1766365;79;21031;-80
2021/07/16 09:10:53;;;;;;;21.60;19.17;;;;;;;22.94;77.55;96505.94;1720739;81;21334;-79
2021/07/16 09:13:20;;;;;;;25.08;20.30;;;;;;;22.96;77.68;96502.53;1751000;80;20927;-79
2021/07/16 09:15:49;;;;;;;24.27;20.12;;;;;;;22.99;77.69;96504.66;1746365;81;21264;-80
2021/07/16 09:18:23;;;;;;;24.35;20.97;;;;;;;23.04;77.57;96504.68;1730528;81;21363;-81
2021/07/16 09:21:05;;;;;;;26.45;23.27;;;;;;;23.08;77.44;96503.63;1729205;81;20912;-80
2021/07/16 09:23:42;;;;;;;25.52;20.85;;;;;;;23.15;77.77;96510.31;1721922;81;20926;-80
2021/07/16 09:26:24;;;;;;;28.55;21.75;;;;;;;23.15;76.88;96506.34;1731931;81;20930;-81
2021/07/16 09:28:47;;;;;;;25.70;21.70;;;;;;;23.23;76.79;96500.52;1721020;81;21015;-81
2021/07/16 09:31:23;;;;;;;27.77;22.75;;;;;;;23.40;77.10;96500.32;1737052;81;21035;-81
2021/07/16 09:33:52;;;;;;;28.40;23.55;;;;;;;23.48;76.16;96495.86;1731027;81;20915;-80
2021/07/16 09:36:28;;;;;;;30.60;24.18;;;;;;;23.58;76.25;96500.41;1696710;83;20930;-80
2021/07/16 09:39:07;;;;;;;33.30;26.20;;;;;;;23.61;75.85;96499.91;1767637;80;20975;-81
2021/07/16 09:41:33;;;;;;;27.55;23.15;;;;;;;23.65;76.29;96490.36;1745576;80;21324;-81
2021/07/16 09:44:02;;;;;;;26.73;23.62;;;;;;;23.68;75.87;96495.14;1727412;81;20962;-82
2021/07/16 09:46:28;;;;;;;29.72;24.30;;;;;;;23.72;76.19;96492.75;1755349;80;20973;-81
2021/07/16 09:48:56;;;;;;;32.83;26.07;;;;;;;23.75;75.92;96492.22;1754241;80;20990;-81
2021/07/16 09:51:25;;;;;;;26.62;23.67;;;;;;;23.82;75.66;96485.63;1775793;80;21006;-81
2021/07/16 09:53:59;;;;;;;27.20;23.20;;;;;;;24.07;77.01;96472.89;1733239;81;21282;-81
2021/07/16 09:56:29;;;;;;;27.22;24.12;;;;;;;24.40;76.37;96478.75;1718364;81;20965;-81
2021/07/16 09:59:06;;;;;;;28.10;23.67;;;;;;;24.60;74.94;96474.77;1783113;80;21023;-84
2021/07/16 10:01:37;;;;;;;32.67;25.85;;;;;;;24.70;74.48;96473.41;1747273;80;20947;-80
2021/07/16 10:04:09;;;;;;;28.07;23.10;;;;;;;24.65;73.72;96469.97;1775818;80;21355;-80
2021/07/16 10:06:35;;;;;;;29.23;26.12;;;;;;;24.75;73.92;96474.74;1754944;80;20988;-80
2021/07/16 10:09:01;;;;;;;30.43;23.92;;;;;;;24.80;73.60;96471.27;1771591;79;21056;-80
2021/07/16 10:11:28;;;;;;;30.50;24.87;;;;;;;24.88;73.50;96472.03;1776651;79;21329;-80
2021/07/16 10:13:57;;;;;;;30.45;24.57;;;;;;;24.96;73.09;96475.48;1797959;79;21572;-80
2021/07/16 10:16:23;;;;;;;29.40;24.00;;;;;;;25.10;73.57;96475.20;1782197;79;20894;-80
2021/07/16 10:18:48;;;;;;;30.05;24.27;;;;;;;25.27;74.02;96474.06;1806779;78;21273;-80
2021/07/16 10:21:14;;;;;;;27.80;24.05;;;;;;;25.50;73.31;96469.95;1812107;78;20908;-80
2021/07/16 10:23:40;;;;;;;26.23;22.95;;;;;;;25.68;72.18;96472.80;1789145;79;20902;-80
2021/07/16 10:26:11;;;;;;;28.85;23.85;;;;;;;25.80;70.62;96475.13;1792652;79;21249;-80
2021/07/16 10:28:42;;;;;;;28.17;23.98;;;;;;;25.85;71.34;96479.08;1787275;79;20937;-80
2021/07/16 10:31:32;;;;;;;31.57;25.15;;;;;;;25.88;70.54;96479.09;1762161;80;20980;-80
2021/07/16 10:34:04;;;;;;;31.65;26.05;;;;;;;25.88;69.03;96484.41;1732515;81;20903;-80
2021/07/16 10:36:45;;;;;;;31.60;26.12;;;;;;;25.68;70.47;96480.78;1771186;80;20966;-80
2021/07/16 10:39:15;;;;;;;30.05;26.17;;;;;;;25.94;70.90;96481.97;1756692;80;21012;-80
2021/07/16 10:41:41;;;;;;;27.67;23.42;;;;;;;25.83;69.42;96492.41;1788794;79;20932;-80
2021/07/16 10:44:08;;;;;;;27.07;23.90;;;;;;;25.63;70.94;96484.78;1790427;79;21246;-81
2021/07/16 10:46:45;;;;;;;28.85;23.57;;;;;;;25.56;70.68;96490.16;1783814;79;20891;-83
2021/07/16 10:49:12;;;;;;;29.27;24.05;;;;;;;25.55;70.69;96492.56;1792576;79;20927;-83
2021/07/16 10:51:40;;;;;;;36.93;29.90;;;;;;;25.67;70.25;96489.02;1780969;79;20996;-82
2021/07/16 10:54:11;;;;;;;31.42;27.98;;;;;;;26.05;70.57;96487.48;1791002;79;21276;-81
2021/07/16 10:56:44;;;;;;;28.47;25.25;;;;;;;26.05;70.57;96487.48;1789225;79;21003;-80
2021/07/16 10:59:11;;;;;;;27.82;24.65;;;;;;;26.23;70.41;96486.81;1793299;79;20975;-79
2021/07/16 11:01:40;;;;;;;25.65;22.67;;;;;;;26.39;69.71;96484.05;1789257;79;21267;-80
2021/07/16 11:04:07;;;;;;;27.32;22.93;;;;;;;26.39;68.56;96497.38;1790836;79;21283;-80
2021/07/16 11:06:52;;;;;;;27.10;23.18;;;;;;;26.37;68.79;96483.00;1786290;79;20945;-81
2021/07/16 11:09:42;;;;;;;29.42;23.90;;;;;;;26.41;68.69;96489.89;1789244;78;21007;-80
2021/07/16 11:12:19;;;;;;;25.82;23.00;;;;;;;26.52;68.73;96487.37;1782808;79;20969;-80
2021/07/16 11:14:45;;;;;;;24.12;21.57;;;;;;;26.60;67.66;96486.24;1773162;79;21061;-80
2021/07/16 11:17:16;;;;;;;30.75;25.48;;;;;;;26.73;67.79;96487.46;1763082;80;21247;-80
2021/07/16 11:19:41;;;;;;;25.02;22.40;;;;;;;26.90;68.17;96482.48;1762010;79;21293;-81
2021/07/16 11:22:07;;;;;;;25.17;22.62;;;;;;;26.90;66.06;96477.69;1782062;79;21237;-80